createdAt,value
2022-07-25T00:01:52.224Z,25.26
2022-07-25T00:04:24.264Z,25.24
2022-07-25T00:06:50.919Z,25.21
2022-07-25T00:09:19.773Z,25.16
2022-07-25T00:11:46.368Z,25.14
2022-07-25T00:14:12.945Z,25.11
2022-07-25T00:16:40.154Z,25.10
2022-07-25T00:19:06.716Z,25.07
2022-07-25T00:21:37.189Z,25.08
2022-07-25T00:24:06.544Z,25.06
2022-07-25T00:26:37.906Z,25.00
2022-07-25T00:29:06.461Z,24.97
2022-07-25T00:31:33.124Z,24.95
2022-07-25T00:34:02.283Z,24.94
2022-07-25T00:36:29.116Z,24.89
2022-07-25T00:38:55.930Z,24.86
2022-07-25T00:41:22.665Z,24.81
2022-07-25T00:43:49.615Z,24.78
2022-07-25T00:46:19.071Z,24.77
2022-07-25T00:48:45.928Z,24.74
2022-07-25T00:51:17.346Z,24.71
2022-07-25T00:53:44.692Z,24.69
2022-07-25T00:56:14.861Z,24.68
2022-07-25T00:58:41.452Z,24.67
2022-07-25T01:01:08.028Z,24.65
2022-07-25T01:03:35.270Z,24.63
2022-07-25T01:06:02.099Z,24.63
2022-07-25T01:08:28.857Z,24.62
2022-07-25T01:10:55.567Z,24.56
2022-07-25T01:13:22.248Z,24.47
2022-07-25T01:15:53.922Z,24.40
2022-07-25T01:18:23.538Z,24.43
2022-07-25T01:20:50.251Z,24.44
2022-07-25T01:23:16.797Z,24.45
2022-07-25T01:25:43.422Z,24.31
2022-07-25T01:28:13.486Z,24.11
2022-07-25T01:30:40.328Z,24.10
2022-07-25T01:33:07.365Z,24.14
2022-07-25T01:35:34.068Z,24.12
2022-07-25T01:38:00.639Z,24.11
2022-07-25T01:40:27.633Z,24.11
2022-07-25T01:42:58.867Z,24.09
2022-07-25T01:45:25.999Z,24.07
2022-07-25T01:47:55.064Z,24.10
2022-07-25T01:50:21.697Z,24.09
2022-07-25T01:52:48.378Z,24.06
2022-07-25T01:55:17.669Z,24.06
2022-07-25T01:57:49.825Z,24.09
2022-07-25T02:00:17.444Z,24.08
2022-07-25T02:02:46.481Z,24.08
2022-07-25T02:05:16.123Z,24.06
2022-07-25T02:07:42.722Z,24.06
2022-07-25T02:10:09.464Z,24.01
2022-07-25T02:12:36.054Z,23.98
2022-07-25T02:15:02.696Z,23.91
2022-07-25T02:17:29.349Z,23.82
2022-07-25T02:19:56.000Z,23.73
2022-07-25T02:22:23.005Z,23.66
2022-07-25T02:24:55.059Z,23.59
2022-07-25T02:27:21.645Z,23.54
2022-07-25T02:29:48.180Z,23.49
2022-07-25T02:32:14.810Z,23.47
2022-07-25T02:34:41.768Z,23.41
2022-07-25T02:37:08.343Z,23.36
2022-07-25T02:39:35.855Z,23.31
2022-07-25T02:42:02.455Z,23.24
2022-07-25T02:44:29.132Z,23.23
2022-07-25T02:46:58.161Z,23.18
2022-07-25T02:49:25.058Z,23.15
2022-07-25T02:51:55.929Z,23.10
2022-07-25T02:54:25.140Z,23.09
2022-07-25T02:56:51.940Z,23.04
2022-07-25T02:59:21.053Z,23.00
2022-07-25T03:01:47.804Z,22.99
2022-07-25T03:04:15.245Z,22.99
2022-07-25T03:06:43.773Z,22.99
2022-07-25T03:09:10.561Z,22.94
2022-07-25T03:11:37.275Z,22.94
2022-07-25T03:14:05.264Z,22.92
2022-07-25T03:16:32.579Z,22.87
2022-07-25T03:18:59.202Z,22.80
2022-07-25T03:21:25.798Z,22.73
2022-07-25T03:23:53.011Z,22.63
2022-07-25T03:26:20.078Z,22.59
2022-07-25T03:28:47.016Z,22.52
2022-07-25T03:31:14.308Z,22.46
2022-07-25T03:33:41.020Z,22.40
2022-07-25T03:36:10.362Z,22.38
2022-07-25T03:38:39.617Z,22.39
2022-07-25T03:41:06.965Z,22.40
2022-07-25T03:43:33.817Z,22.42
2022-07-25T03:46:00.867Z,22.43
2022-07-25T03:48:28.285Z,22.45
2022-07-25T03:50:56.256Z,22.46
2022-07-25T03:53:22.918Z,22.47
2022-07-25T03:55:49.688Z,22.45
2022-07-25T03:58:16.421Z,22.41
2022-07-25T04:00:43.667Z,22.36
2022-07-25T04:03:11.060Z,22.34
2022-07-25T04:05:45.548Z,22.33
2022-07-25T04:08:14.365Z,22.31
2022-07-25T04:10:44.046Z,22.33
2022-07-25T04:13:11.127Z,22.30
2022-07-25T04:15:38.437Z,22.30
2022-07-25T04:18:08.655Z,22.28
2022-07-25T04:20:40.341Z,22.29
2022-07-25T04:23:09.135Z,22.31
2022-07-25T04:25:35.841Z,22.29
2022-07-25T04:28:02.587Z,22.28
2022-07-25T04:30:31.962Z,22.27
2022-07-25T04:32:59.059Z,22.31
2022-07-25T04:35:25.664Z,22.34
2022-07-25T04:37:52.389Z,22.37
2022-07-25T04:40:19.060Z,22.38
2022-07-25T04:42:46.249Z,22.40
2022-07-25T04:45:13.557Z,22.42
2022-07-25T04:47:43.106Z,22.46
2022-07-25T04:50:13.143Z,22.52
2022-07-25T04:52:40.170Z,22.54
2022-07-25T04:55:06.923Z,22.59
2022-07-25T04:57:35.918Z,22.62
2022-07-25T05:00:03.610Z,22.63
2022-07-25T05:02:32.758Z,22.67
2022-07-25T05:04:59.570Z,22.71
2022-07-25T05:07:29.841Z,22.68
2022-07-25T05:09:56.845Z,22.66
2022-07-25T05:12:23.509Z,22.69
2022-07-25T05:14:50.454Z,22.74
2022-07-25T05:17:17.279Z,22.79
2022-07-25T05:19:43.908Z,22.82
2022-07-25T05:22:10.625Z,22.86
2022-07-25T05:24:39.897Z,22.88
2022-07-25T05:27:07.839Z,22.89
2022-07-25T05:29:35.139Z,22.90
2022-07-25T05:32:04.623Z,22.98
2022-07-25T05:34:32.090Z,23.04
2022-07-25T05:36:58.645Z,23.09
2022-07-25T05:39:25.185Z,23.13
2022-07-25T05:41:52.244Z,23.16
2022-07-25T05:44:21.150Z,23.20
2022-07-25T05:46:52.350Z,23.27
2022-07-25T05:49:23.905Z,23.31
2022-07-25T05:51:53.467Z,23.37
2022-07-25T05:54:20.026Z,23.41
2022-07-25T05:56:47.178Z,23.48
2022-07-25T05:59:18.892Z,23.57
2022-07-25T06:01:45.540Z,23.60
2022-07-25T06:04:12.167Z,23.66
2022-07-25T06:06:38.803Z,23.73
2022-07-25T06:09:08.667Z,23.81
2022-07-25T06:11:35.998Z,23.90
2022-07-25T06:14:20.783Z,23.99
2022-07-25T06:16:49.651Z,24.06
2022-07-25T06:19:17.732Z,24.10
2022-07-25T06:21:47.029Z,24.17
2022-07-25T06:24:13.923Z,24.21
2022-07-25T06:26:40.615Z,24.26
2022-07-25T06:29:07.254Z,24.32
2022-07-25T06:31:33.907Z,24.38
2022-07-25T06:34:03.367Z,24.49
2022-07-25T06:36:32.841Z,24.57
2022-07-25T06:39:02.620Z,24.65
2022-07-25T06:41:29.259Z,24.74
2022-07-25T06:43:58.308Z,24.78
2022-07-25T06:46:26.709Z,24.86
2022-07-25T06:48:53.521Z,24.93
2022-07-25T06:51:22.944Z,25.00
2022-07-25T06:53:49.798Z,25.07
2022-07-25T06:56:17.803Z,25.14
2022-07-25T06:58:44.761Z,25.20
2022-07-25T07:01:11.520Z,25.26
2022-07-25T07:03:43.119Z,25.34
2022-07-25T07:06:10.179Z,25.40
2022-07-25T07:08:37.078Z,25.47
2022-07-25T07:11:06.295Z,25.55
2022-07-25T07:13:33.328Z,25.64
2022-07-25T07:16:00.547Z,25.72
2022-07-25T07:18:27.179Z,25.79
2022-07-25T07:20:56.563Z,25.84
2022-07-25T07:23:24.775Z,25.90
2022-07-25T07:25:51.479Z,25.96
2022-07-25T07:28:18.070Z,26.01
2022-07-25T07:31:14.770Z,26.10
2022-07-25T07:33:37.120Z,26.22
2022-07-25T07:36:06.724Z,26.27
2022-07-25T07:38:38.178Z,26.34
2022-07-25T07:41:07.204Z,26.41
2022-07-25T07:43:36.244Z,26.48
2022-07-25T07:46:02.942Z,26.55
2022-07-25T07:48:33.550Z,26.59
2022-07-25T07:51:00.825Z,26.61
2022-07-25T07:53:47.448Z,26.65
2022-07-25T07:56:14.846Z,26.72
2022-07-25T07:58:41.413Z,26.79
2022-07-25T08:01:08.145Z,26.82
2022-07-25T08:03:34.741Z,26.88
2022-07-25T08:06:03.886Z,26.91
2022-07-25T08:08:31.539Z,26.98
2022-07-25T08:10:59.306Z,27.02
2022-07-25T08:13:27.848Z,26.94
2022-07-25T08:15:58.785Z,26.98
2022-07-25T08:18:29.867Z,27.09
2022-07-25T08:21:00.213Z,27.21
2022-07-25T08:23:27.828Z,27.32
2022-07-25T08:25:59.908Z,27.40
2022-07-25T08:28:28.908Z,27.50
2022-07-25T08:30:58.993Z,27.61
2022-07-25T08:33:31.430Z,27.72
2022-07-25T08:36:00.534Z,27.79
2022-07-25T08:38:30.532Z,27.89
2022-07-25T08:40:57.992Z,27.94
2022-07-25T08:43:24.585Z,28.00
2022-07-25T08:45:51.928Z,28.00
2022-07-25T08:48:22.537Z,27.92
2022-07-25T08:50:49.364Z,27.89
2022-07-25T08:53:32.650Z,27.80
2022-07-25T08:56:04.207Z,27.92
2022-07-25T08:58:34.686Z,27.88
2022-07-25T09:01:01.493Z,27.90
2022-07-25T09:03:28.089Z,27.94
2022-07-25T09:05:56.105Z,28.00
2022-07-25T09:08:23.083Z,28.00
2022-07-25T09:10:50.936Z,27.85
2022-07-25T09:13:18.243Z,27.96
2022-07-25T09:15:51.237Z,28.09
2022-07-25T09:18:19.886Z,28.24
2022-07-25T09:20:47.737Z,28.42
2022-07-25T09:23:28.269Z,28.58
2022-07-25T09:26:01.815Z,28.66
2022-07-25T09:28:29.461Z,28.69
2022-07-25T09:30:57.037Z,28.75
2022-07-25T09:33:26.749Z,28.90
2022-07-25T09:35:53.613Z,29.01
2022-07-25T09:38:24.014Z,28.94
2022-07-25T09:40:54.471Z,28.97
2022-07-25T09:43:21.230Z,28.89
2022-07-25T09:45:53.544Z,28.89
2022-07-25T09:48:21.032Z,28.87
2022-07-25T09:50:50.084Z,28.92
2022-07-25T09:53:16.932Z,29.02
2022-07-25T09:55:44.146Z,29.15
2022-07-25T09:58:13.759Z,29.17
2022-07-25T10:00:43.056Z,29.26
2022-07-25T10:03:12.629Z,29.40
2022-07-25T10:05:58.033Z,29.46
2022-07-25T10:08:24.729Z,29.53
2022-07-25T10:10:51.822Z,29.64
2022-07-25T10:13:29.362Z,29.81
2022-07-25T10:15:58.519Z,30.02
2022-07-25T10:18:28.636Z,30.21
2022-07-25T10:21:24.419Z,30.44
2022-07-25T10:24:05.442Z,30.64
2022-07-25T10:26:32.757Z,30.90
2022-07-25T10:28:59.669Z,30.97
2022-07-25T10:31:27.971Z,30.95
2022-07-25T10:33:55.936Z,30.90
2022-07-25T10:36:23.182Z,31.07
2022-07-25T10:38:56.209Z,30.95
2022-07-25T10:41:28.852Z,31.11
2022-07-25T10:44:02.925Z,31.24
2022-07-25T10:46:31.186Z,31.51
2022-07-25T10:48:59.003Z,31.61
2022-07-25T10:51:29.611Z,31.77
2022-07-25T10:53:56.460Z,31.86
2022-07-25T10:56:24.265Z,31.94
2022-07-25T10:58:52.099Z,32.03
2022-07-25T11:01:26.306Z,32.30
2022-07-25T11:03:55.956Z,32.58
2022-07-25T11:06:30.788Z,32.84
2022-07-25T11:09:01.328Z,32.83
2022-07-25T11:11:38.864Z,32.85
2022-07-25T11:14:05.844Z,32.81
2022-07-25T11:16:32.580Z,32.86
2022-07-25T11:19:02.214Z,32.88
2022-07-25T11:21:28.931Z,33.15
2022-07-25T11:23:55.493Z,33.18
2022-07-25T11:26:27.466Z,33.24
2022-07-25T11:28:59.123Z,33.23
2022-07-25T11:31:26.145Z,33.04
2022-07-25T11:33:55.492Z,33.09
2022-07-25T11:36:22.161Z,32.98
2022-07-25T11:38:49.181Z,33.09
2022-07-25T11:41:15.724Z,33.15
2022-07-25T11:43:47.893Z,33.31
2022-07-25T11:46:18.445Z,33.82
2022-07-25T11:48:48.153Z,34.40
2022-07-25T11:51:20.677Z,34.97
2022-07-25T11:53:49.890Z,35.47
2022-07-25T11:56:40.687Z,35.86
2022-07-25T11:59:05.022Z,36.29
2022-07-25T12:01:35.847Z,36.80
2022-07-25T12:04:29.871Z,37.07
2022-07-25T12:07:03.549Z,37.11
2022-07-25T12:09:32.583Z,37.33
2022-07-25T12:12:02.877Z,37.66
2022-07-25T12:14:35.375Z,38.06
2022-07-25T12:17:02.275Z,38.35
2022-07-25T12:19:32.339Z,38.68
2022-07-25T12:21:59.199Z,38.94
2022-07-25T12:24:25.926Z,39.17
2022-07-25T12:26:52.650Z,38.52
2022-07-25T12:29:19.628Z,38.47
2022-07-25T12:31:46.245Z,37.61
2022-07-25T12:34:12.931Z,37.57
2022-07-25T12:36:44.982Z,38.15
2022-07-25T12:39:13.764Z,38.95
2022-07-25T12:41:42.649Z,39.76
2022-07-25T12:44:12.092Z,40.73
2022-07-25T12:46:40.364Z,41.46
2022-07-25T12:49:08.126Z,42.36
2022-07-25T12:51:40.318Z,43.24
2022-07-25T12:54:07.216Z,43.51
2022-07-25T12:56:34.342Z,42.70
2022-07-25T12:59:04.010Z,42.35
2022-07-25T13:01:33.675Z,42.17
2022-07-25T13:04:00.278Z,41.72
2022-07-25T13:06:27.366Z,42.36
2022-07-25T13:08:54.613Z,43.55
2022-07-25T13:11:21.229Z,43.72
2022-07-25T13:13:51.074Z,43.74
2022-07-25T13:16:17.814Z,44.94
2022-07-25T13:18:44.464Z,45.92
2022-07-25T13:21:11.354Z,46.27
2022-07-25T13:23:38.801Z,46.80
2022-07-25T13:26:08.523Z,47.17
2022-07-25T13:28:38.240Z,47.61
2022-07-25T13:31:08.142Z,47.23
2022-07-25T13:33:35.690Z,47.56
2022-07-25T13:36:02.226Z,47.53
2022-07-25T13:38:28.793Z,47.78
2022-07-25T13:40:58.949Z,48.39
2022-07-25T13:43:28.595Z,48.87
2022-07-25T13:45:57.694Z,47.87
2022-07-25T13:48:29.991Z,48.24
2022-07-25T13:50:58.229Z,48.69
2022-07-25T13:53:30.174Z,48.82
2022-07-25T13:55:59.726Z,48.46
2022-07-25T13:58:29.616Z,46.32
2022-07-25T14:00:56.274Z,45.25
2022-07-25T14:03:25.890Z,45.61
2022-07-25T14:05:52.674Z,46.62
2022-07-25T14:08:19.245Z,46.58
2022-07-25T14:10:46.540Z,46.04
2022-07-25T14:13:13.253Z,45.24
2022-07-25T14:15:44.954Z,44.09
2022-07-25T14:18:14.100Z,45.36
2022-07-25T14:20:46.540Z,46.45
2022-07-25T14:23:13.174Z,47.06
2022-07-25T14:25:39.736Z,48.36
2022-07-25T14:28:06.633Z,49.16
2022-07-25T14:30:38.078Z,49.75
2022-07-25T14:33:05.564Z,50.69
2022-07-25T14:35:32.894Z,51.07
2022-07-25T14:37:59.699Z,50.95
2022-07-25T14:40:27.082Z,51.43
2022-07-25T14:42:54.185Z,50.89
2022-07-25T14:45:22.009Z,50.81
2022-07-25T14:47:48.744Z,50.21
2022-07-25T14:50:17.590Z,49.36
2022-07-25T14:52:44.351Z,49.23
2022-07-25T14:55:10.947Z,49.35
2022-07-25T14:57:40.834Z,50.21
2022-07-25T15:00:07.855Z,50.23
2022-07-25T15:02:34.960Z,50.43
2022-07-25T15:05:01.675Z,50.81
2022-07-25T15:07:28.406Z,49.35
2022-07-25T15:09:55.014Z,48.89
2022-07-25T15:12:24.133Z,49.16
2022-07-25T15:14:54.027Z,50.08
2022-07-25T15:17:23.017Z,50.44
2022-07-25T15:19:49.679Z,50.69
2022-07-25T15:22:16.277Z,50.90
2022-07-25T15:25:21.427Z,50.51
2022-07-25T15:27:34.974Z,50.19
2022-07-25T15:30:04.005Z,49.67
2022-07-25T15:32:31.027Z,49.18
2022-07-25T15:35:00.053Z,48.97
2022-07-25T15:37:26.888Z,48.60
2022-07-25T15:39:53.535Z,48.59
2022-07-25T15:42:20.341Z,48.30
2022-07-25T15:44:49.093Z,47.84
2022-07-25T15:47:15.800Z,47.02
2022-07-25T15:49:44.903Z,46.40
2022-07-25T15:52:12.088Z,45.67
2022-07-25T15:54:41.063Z,44.71
2022-07-25T15:57:10.263Z,43.92
2022-07-25T15:59:39.311Z,43.52
2022-07-25T16:02:10.242Z,42.97
2022-07-25T16:04:37.001Z,41.99
2022-07-25T16:07:03.945Z,41.36
2022-07-25T16:09:33.028Z,40.21
2022-07-25T16:11:59.868Z,39.35
2022-07-25T16:14:27.272Z,38.92
2022-07-25T16:16:56.804Z,38.64
2022-07-25T16:19:25.891Z,37.88
2022-07-25T16:21:57.196Z,37.49
2022-07-25T16:24:26.212Z,37.24
2022-07-25T16:26:52.994Z,37.33
2022-07-25T16:29:20.308Z,37.34
2022-07-25T16:31:47.267Z,37.31
2022-07-25T16:34:14.079Z,37.17
2022-07-25T16:36:40.781Z,36.97
2022-07-25T16:39:08.045Z,36.73
2022-07-25T16:41:35.388Z,36.47
2022-07-25T16:44:02.687Z,35.93
2022-07-25T16:46:33.103Z,35.86
2022-07-25T16:49:02.706Z,35.31
2022-07-25T16:51:36.814Z,35.11
2022-07-25T16:54:04.497Z,35.01
2022-07-25T16:56:31.358Z,34.95
2022-07-25T16:58:58.037Z,34.97
2022-07-25T17:01:26.765Z,34.94
2022-07-25T17:03:56.273Z,34.74
2022-07-25T17:06:23.348Z,34.62
2022-07-25T17:08:52.992Z,34.35
2022-07-25T17:11:20.287Z,34.19
2022-07-25T17:13:47.850Z,33.86
2022-07-25T17:16:14.685Z,33.62
2022-07-25T17:18:41.402Z,33.50
2022-07-25T17:21:09.532Z,33.45
2022-07-25T17:23:36.207Z,33.35
2022-07-25T17:26:05.433Z,33.20
2022-07-25T17:28:32.393Z,33.18
2022-07-25T17:31:01.339Z,33.03
2022-07-25T17:33:28.218Z,32.87
2022-07-25T17:35:58.856Z,32.80
2022-07-25T17:38:34.387Z,32.78
2022-07-25T17:41:03.817Z,32.74
2022-07-25T17:43:31.299Z,32.64
2022-07-25T17:46:00.583Z,32.61
2022-07-25T17:48:27.352Z,32.50
2022-07-25T17:50:56.827Z,32.47
2022-07-25T17:53:26.312Z,32.42
2022-07-25T17:55:58.288Z,32.37
2022-07-25T17:58:24.964Z,32.27
2022-07-25T18:00:59.552Z,32.23
2022-07-25T18:03:29.571Z,32.18
2022-07-25T18:05:57.583Z,32.12
2022-07-25T18:08:24.321Z,32.04
2022-07-25T18:10:53.202Z,31.97
2022-07-25T18:13:22.064Z,31.91
2022-07-25T18:15:50.326Z,31.85
2022-07-25T18:18:20.698Z,31.80
2022-07-25T18:20:47.802Z,31.74
2022-07-25T18:23:15.104Z,31.68
2022-07-25T18:25:43.957Z,31.63
2022-07-25T18:28:11.627Z,31.57
2022-07-25T18:30:38.557Z,31.48
2022-07-25T18:33:07.858Z,31.40
2022-07-25T18:35:34.637Z,31.30
2022-07-25T18:38:01.978Z,31.25
2022-07-25T18:40:28.672Z,31.19
2022-07-25T18:42:55.997Z,31.14
2022-07-25T18:45:25.506Z,31.08
2022-07-25T18:47:56.321Z,31.02
2022-07-25T18:50:23.559Z,30.92
2022-07-25T18:52:50.253Z,30.84
2022-07-25T18:55:17.053Z,30.77
2022-07-25T18:57:43.863Z,30.66
2022-07-25T19:00:10.986Z,30.62
2022-07-25T19:02:38.236Z,30.57
2022-07-25T19:05:05.210Z,30.51
2022-07-25T19:07:33.112Z,30.40
2022-07-25T19:10:02.718Z,30.34
2022-07-25T19:12:29.481Z,30.30
2022-07-25T19:14:56.420Z,30.24
2022-07-25T19:17:24.005Z,30.22
2022-07-25T19:19:51.075Z,30.18
2022-07-25T19:22:23.124Z,30.13
2022-07-25T19:24:49.957Z,30.07
2022-07-25T19:27:16.547Z,30.04
2022-07-25T19:29:46.488Z,29.92
2022-07-25T19:32:16.213Z,29.89
2022-07-25T19:34:45.011Z,29.86
2022-07-25T19:37:11.735Z,29.75
2022-07-25T19:39:38.416Z,29.72
2022-07-25T19:42:08.642Z,29.70
2022-07-25T19:44:37.686Z,29.69
2022-07-25T19:47:11.211Z,29.65
2022-07-25T19:49:40.901Z,29.59
2022-07-25T19:52:08.333Z,29.56
2022-07-25T19:54:35.345Z,29.54
2022-07-25T19:57:02.044Z,29.52
2022-07-25T19:59:32.156Z,29.44
2022-07-25T20:01:59.311Z,29.38
2022-07-25T20:04:26.149Z,29.33
2022-07-25T20:06:53.828Z,29.25
2022-07-25T20:09:23.458Z,29.20
2022-07-25T20:11:50.370Z,29.15
2022-07-25T20:14:19.472Z,29.07
2022-07-25T20:16:46.341Z,29.03
2022-07-25T20:19:15.347Z,28.98
2022-07-25T20:21:41.989Z,28.94
2022-07-25T20:24:09.164Z,28.90
2022-07-25T20:26:35.758Z,28.89
2022-07-25T20:29:02.438Z,28.87
2022-07-25T20:31:29.152Z,28.84
2022-07-25T20:33:55.756Z,28.81
2022-07-25T20:36:22.451Z,28.76
2022-07-25T20:38:49.296Z,28.72
2022-07-25T20:41:19.006Z,28.71
2022-07-25T20:43:45.665Z,28.64
2022-07-25T20:46:12.416Z,28.58
2022-07-25T20:48:42.302Z,28.55
2022-07-25T20:51:08.857Z,28.52
2022-07-25T20:53:38.550Z,28.50
2022-07-25T20:56:08.070Z,28.47
2022-07-25T20:58:36.760Z,28.40
2022-07-25T21:01:04.041Z,28.37
2022-07-25T21:03:31.206Z,28.35
2022-07-25T21:05:57.852Z,28.30
2022-07-25T21:08:24.460Z,28.28
2022-07-25T21:10:51.493Z,28.26
2022-07-25T21:13:20.776Z,28.24
2022-07-25T21:15:47.785Z,28.20
2022-07-25T21:18:17.699Z,28.17
2022-07-25T21:20:50.316Z,28.13
2022-07-25T21:23:16.828Z,28.10
2022-07-25T21:25:43.538Z,28.07
2022-07-25T21:28:10.052Z,28.02
2022-07-25T21:30:41.250Z,27.95
2022-07-25T21:33:14.310Z,27.88
2022-07-25T21:35:50.441Z,27.82
2022-07-25T21:38:26.878Z,27.76
2022-07-25T21:40:54.557Z,27.72
2022-07-25T21:43:21.183Z,27.66
2022-07-25T21:45:48.018Z,27.61
2022-07-25T21:48:17.101Z,27.56
2022-07-25T21:50:50.401Z,27.48
2022-07-25T21:53:17.262Z,27.41
2022-07-25T21:55:43.852Z,27.34
2022-07-25T21:58:10.895Z,27.31
2022-07-25T22:00:41.803Z,27.28
2022-07-25T22:03:12.281Z,27.24
2022-07-25T22:05:41.885Z,27.20
2022-07-25T22:08:08.508Z,27.17
2022-07-25T22:10:35.180Z,27.12
2022-07-25T22:13:04.178Z,27.08
2022-07-25T22:15:33.142Z,27.01
2022-07-25T22:18:02.288Z,26.97
2022-07-25T22:20:28.895Z,26.93
2022-07-25T22:22:55.643Z,26.88
2022-07-25T22:25:22.570Z,26.83
2022-07-25T22:27:49.364Z,26.81
2022-07-25T22:30:19.397Z,26.77
2022-07-25T22:32:47.249Z,26.73
2022-07-25T22:35:16.214Z,26.72
2022-07-25T22:37:43.404Z,26.61
2022-07-25T22:40:10.242Z,26.58
2022-07-25T22:42:44.394Z,26.52
2022-07-25T22:45:10.965Z,26.44
2022-07-25T22:47:37.815Z,26.37
2022-07-25T22:50:05.439Z,26.31
2022-07-25T22:52:32.047Z,26.23
2022-07-25T22:55:01.086Z,26.14
2022-07-25T22:57:28.343Z,26.09
2022-07-25T22:59:55.355Z,26.07
2022-07-25T23:02:24.299Z,26.01
2022-07-25T23:04:51.063Z,25.92
2022-07-25T23:07:17.866Z,25.84
2022-07-25T23:09:44.406Z,25.74
2022-07-25T23:12:11.296Z,25.55
2022-07-25T23:14:37.999Z,25.43
2022-07-25T23:17:17.301Z,25.33
2022-07-25T23:19:44.703Z,25.39
2022-07-25T23:22:13.580Z,25.40
2022-07-25T23:24:42.500Z,25.42
2022-07-25T23:27:09.162Z,25.44
2022-07-25T23:29:41.079Z,25.46
2022-07-25T23:32:07.788Z,25.47
2022-07-25T23:34:37.191Z,25.48
2022-07-25T23:37:06.148Z,25.49
2022-07-25T23:39:33.451Z,25.48
2022-07-25T23:42:00.314Z,25.46
2022-07-25T23:44:27.470Z,25.45
2022-07-25T23:46:59.939Z,25.42
2022-07-25T23:49:28.229Z,25.43
2022-07-25T23:51:57.190Z,25.39
2022-07-25T23:54:26.354Z,25.36
2022-07-25T23:56:53.408Z,25.34
2022-07-25T23:59:20.135Z,25.34
